Liguria — IRKJ — position and weather

sailwx.info

Track history (hours):
 
Tides and Currents Weather Stations Pressure Air Temp Water Temp Dewpoint Dewpoint Depression Visibility Wind Speed Wind Dir Waves Ship Positions

Liguria

Last reported at 2016-May-01 16:31 UTC. Time now 2016-May-01 17:28 UTC.
Position N 44°18' E 008°29'.

Length 30 m; draft 4.5 m.

Type: Tug. MMSI: 247228500.

Date/timePositionNaut miles runAvg speedWind from/ knotsBaromVisibWave heightAir tempDewpointWater temp
2016-May-01 16:31N 44°18' E 008°29'0 0.0
2016-May-01 15:25N 44°18' E 008°29'0 0.0
2016-May-01 14:31N 44°18' E 008°29'0 0.0
2016-May-01 13:31N 44°18' E 008°29'0 0.0
2016-May-01 12:31N 44°18' E 008°29'0 0.0
2016-May-01 11:31N 44°18' E 008°29'0 0.0
2016-May-01 10:31N 44°18' E 008°29'0 0.0
2016-May-01 09:31N 44°18' E 008°29'0 0.3
2016-May-01 08:28N 44°19' E 008°30'0 0.3
2016-May-01 07:23N 44°18' E 008°29'1 1.0
2016-May-01 06:33N 44°19' E 008°30'0 0.3
2016-May-01 05:34N 44°19' E 008°31'1 0.9
2016-May-01 04:30N 44°18' E 008°29'0 0.0
2016-Apr-30 17:30N 44°18' E 008°29'0 0.0
2016-Apr-30 16:30N 44°18' E 008°29'0 0.0
2016-Apr-30 15:30N 44°18' E 008°29'0 0.0
2016-Apr-30 14:33N 44°18' E 008°29'0 0.0
2016-Apr-30 13:18N 44°18' E 008°29'0 0.0
2016-Apr-30 12:24N 44°18' E 008°29'0 0.0
2016-Apr-30 11:30N 44°18' E 008°29'0 0.0
2016-Apr-30 10:30N 44°18' E 008°29'0 0.0
2016-Apr-30 09:18N 44°18' E 008°29'0 0.0
2016-Apr-30 08:30N 44°18' E 008°29'0 0.0
2016-Apr-30 07:30N 44°18' E 008°29'1 0.8
2016-Apr-30 06:33N 44°19' E 008°30'1 0.8
2016-Apr-30 05:33N 44°18' E 008°29'0 0.0
2016-Apr-30 04:33N 44°18' E 008°29'0 0.0
2016-Apr-30 03:33N 44°18' E 008°29'0 0.0
2016-Apr-30 02:33N 44°18' E 008°29'0 0.0
2016-Apr-30 01:33N 44°18' E 008°29'0 0.0
2016-Apr-29 11:32N 44°18' E 008°29'0 0.0
2016-Apr-29 10:26N 44°18' E 008°29'0 0.0
2016-Apr-29 09:14N 44°18' E 008°29'0 0.0
2016-Apr-29 08:32N 44°18' E 008°29'0 0.0
2016-Apr-29 06:32N 44°18' E 008°29'0 0.4
2016-Apr-29 05:33N 44°19' E 008°30'0 0.4
2016-Apr-29 04:33N 44°18' E 008°29'0 0.0
2016-Apr-29 01:12N 44°18' E 008°29'0 0.0
2016-Apr-29 00:33N 44°18' E 008°29'0 0.0
2016-Apr-28 23:16N 44°18' E 008°29'0 0.0
2016-Apr-28 13:30N 44°18' E 008°29'0 0.0
2016-Apr-28 12:33N 44°18' E 008°29'0 0.0
2016-Apr-28 11:33N 44°18' E 008°29'0 0.0
2016-Apr-28 10:33N 44°18' E 008°29'0 0.0
2016-Apr-28 09:33N 44°18' E 008°29'0 0.0
2016-Apr-28 08:33N 44°18' E 008°29'1 0.7
2016-Apr-28 07:32N 44°19' E 008°30'3 2.6
2016-Apr-28 06:31N 44°17' E 008°28'0 0.3
2016-Apr-28 05:33N 44°17' E 008°28'3 2.9
2016-Apr-28 04:31N 44°19' E 008°31'0 0.1
2016-Apr-27 22:33N 44°19' E 008°30'3 3.4
2016-Apr-27 21:31N 44°16' E 008°27'4 0.1
2016-Apr-26 04:33N 44°19' E 008°30'0 0.0
2016-Apr-25 06:33N 44°18' E 008°30'3 2.5
2016-Apr-25 05:27N 44°16' E 008°28'1 1.4
2016-Apr-25 04:33N 44°17' E 008°29'1 0.1
2016-Apr-24 17:25N 44°18' E 008°29'0 0.0
2016-Apr-24 16:33N 44°18' E 008°29'0 0.0
2016-Apr-24 15:33N 44°18' E 008°29'0 0.0
2016-Apr-24 14:33N 44°18' E 008°29'0 0.0
2016-Apr-24 13:31N 44°18' E 008°29'0 0.0
2016-Apr-23 15:33N 44°18' E 008°30'2 2.5
2016-Apr-23 14:33N 44°17' E 008°28'0 0.2
2016-Apr-23 13:33N 44°17' E 008°28'1 0.8
2016-Apr-23 12:33N 44°16' E 008°27'3 3.3
2016-Apr-23 11:33N 44°19' E 008°30'0 0.0
2016-Apr-23 06:33N 44°19' E 008°30'2 0.1
2016-Apr-22 07:33N 44°17' E 008°28'1 0.5
2016-Apr-22 06:25N 44°16' E 008°28'0 0.4
2016-Apr-22 05:33N 44°17' E 008°28'2 0.2
2016-Apr-21 18:28N 44°19' E 008°29'3 3.4
2016-Apr-21 17:33N 44°16' E 008°27'0 0.4
2016-Apr-21 16:34N 44°16' E 008°27'  
Track history (hours):
 
Tides and Currents Weather Stations Pressure Air Temp Water Temp Dewpoint Dewpoint Depression Visibility Wind Speed Wind Dir Waves Ship Positions

Liguria

Last reported at 2016-May-01 16:31 UTC. Time now 2016-May-01 17:28 UTC.
Position N 44°18' E 008°29'.

Length 30 m; draft 4.5 m.

Type: Tug. MMSI: 247228500.

Date/timePositionNaut miles runAvg speedWind from/ knotsBaromVisibWave heightAir tempDewpointWater temp
2016-May-01 16:31N 44°18' E 008°29'0 0.0
2016-May-01 15:25N 44°18' E 008°29'0 0.0
2016-May-01 14:31N 44°18' E 008°29'0 0.0
2016-May-01 13:31N 44°18' E 008°29'0 0.0
2016-May-01 12:31N 44°18' E 008°29'0 0.0
2016-May-01 11:31N 44°18' E 008°29'0 0.0
2016-May-01 10:31N 44°18' E 008°29'0 0.0
2016-May-01 09:31N 44°18' E 008°29'0 0.3
2016-May-01 08:28N 44°19' E 008°30'0 0.3
2016-May-01 07:23N 44°18' E 008°29'1 1.0
2016-May-01 06:33N 44°19' E 008°30'0 0.3
2016-May-01 05:34N 44°19' E 008°31'1 0.9
2016-May-01 04:30N 44°18' E 008°29'0 0.0
2016-Apr-30 17:30N 44°18' E 008°29'0 0.0
2016-Apr-30 16:30N 44°18' E 008°29'0 0.0
2016-Apr-30 15:30N 44°18' E 008°29'0 0.0
2016-Apr-30 14:33N 44°18' E 008°29'0 0.0
2016-Apr-30 13:18N 44°18' E 008°29'0 0.0
2016-Apr-30 12:24N 44°18' E 008°29'0 0.0
2016-Apr-30 11:30N 44°18' E 008°29'0 0.0
2016-Apr-30 10:30N 44°18' E 008°29'0 0.0
2016-Apr-30 09:18N 44°18' E 008°29'0 0.0
2016-Apr-30 08:30N 44°18' E 008°29'0 0.0
2016-Apr-30 07:30N 44°18' E 008°29'1 0.8
2016-Apr-30 06:33N 44°19' E 008°30'1 0.8
2016-Apr-30 05:33N 44°18' E 008°29'0 0.0
2016-Apr-30 04:33N 44°18' E 008°29'0 0.0
2016-Apr-30 03:33N 44°18' E 008°29'0 0.0
2016-Apr-30 02:33N 44°18' E 008°29'0 0.0
2016-Apr-30 01:33N 44°18' E 008°29'0 0.0
2016-Apr-29 11:32N 44°18' E 008°29'0 0.0
2016-Apr-29 10:26N 44°18' E 008°29'0 0.0
2016-Apr-29 09:14N 44°18' E 008°29'0 0.0
2016-Apr-29 08:32N 44°18' E 008°29'0 0.0
2016-Apr-29 06:32N 44°18' E 008°29'0 0.4
2016-Apr-29 05:33N 44°19' E 008°30'0 0.4
2016-Apr-29 04:33N 44°18' E 008°29'0 0.0
2016-Apr-29 01:12N 44°18' E 008°29'0 0.0
2016-Apr-29 00:33N 44°18' E 008°29'0 0.0
2016-Apr-28 23:16N 44°18' E 008°29'0 0.0
2016-Apr-28 13:30N 44°18' E 008°29'0 0.0
2016-Apr-28 12:33N 44°18' E 008°29'0 0.0
2016-Apr-28 11:33N 44°18' E 008°29'0 0.0
2016-Apr-28 10:33N 44°18' E 008°29'0 0.0
2016-Apr-28 09:33N 44°18' E 008°29'0 0.0
2016-Apr-28 08:33N 44°18' E 008°29'1 0.7
2016-Apr-28 07:32N 44°19' E 008°30'3 2.6
2016-Apr-28 06:31N 44°17' E 008°28'0 0.3
2016-Apr-28 05:33N 44°17' E 008°28'3 2.9
2016-Apr-28 04:31N 44°19' E 008°31'0 0.1
2016-Apr-27 22:33N 44°19' E 008°30'3 3.4
2016-Apr-27 21:31N 44°16' E 008°27'4 0.1
2016-Apr-26 04:33N 44°19' E 008°30'0 0.0
2016-Apr-25 06:33N 44°18' E 008°30'3 2.5
2016-Apr-25 05:27N 44°16' E 008°28'1 1.4
2016-Apr-25 04:33N 44°17' E 008°29'1 0.1
2016-Apr-24 17:25N 44°18' E 008°29'0 0.0
2016-Apr-24 16:33N 44°18' E 008°29'0 0.0
2016-Apr-24 15:33N 44°18' E 008°29'0 0.0
2016-Apr-24 14:33N 44°18' E 008°29'0 0.0
2016-Apr-24 13:31N 44°18' E 008°29'0 0.0
2016-Apr-23 15:33N 44°18' E 008°30'2 2.5
2016-Apr-23 14:33N 44°17' E 008°28'0 0.2
2016-Apr-23 13:33N 44°17' E 008°28'1 0.8
2016-Apr-23 12:33N 44°16' E 008°27'3 3.3
2016-Apr-23 11:33N 44°19' E 008°30'0 0.0
2016-Apr-23 06:33N 44°19' E 008°30'2 0.1
2016-Apr-22 07:33N 44°17' E 008°28'1 0.5
2016-Apr-22 06:25N 44°16' E 008°28'0 0.4
2016-Apr-22 05:33N 44°17' E 008°28'2 0.2
2016-Apr-21 18:28N 44°19' E 008°29'3 3.4
2016-Apr-21 17:33N 44°16' E 008°27'0 0.4
2016-Apr-21 16:34N 44°16' E 008°27'  

Dump ship's entire track history